Time;durP1;ratioP1;P1;durP2;ratioP2;P2;SDS_P1;SDS_P2;PMS_P1;PMS_P2;Temp;Humidity;BMP_temperature;BMP_pressure;BME280_temperature;BME280_humidity;BME280_pressure;Samples;Min_cycle;Max_cycle;Signal;HPM_P1;HPM_P2
2023/03/09 00:01:18;;;;;;;13.97;6.10;;;4.60;55.40;;;;;;4954194;29;20252;-65
2023/03/09 00:03:45;;;;;;;10.97;5.70;;;4.50;55.60;;;;;;4950295;29;20240;-65
2023/03/09 00:06:12;;;;;;;11.77;4.93;;;4.50;55.70;;;;;;4951044;28;20197;-64
2023/03/09 00:08:40;;;;;;;15.23;6.40;;;4.50;55.70;;;;;;4952021;28;20197;-64
2023/03/09 00:11:08;;;;;;;14.50;6.17;;;4.50;55.70;;;;;;4952850;29;20208;-64
2023/03/09 00:13:36;;;;;;;11.90;6.13;;;4.50;55.90;;;;;;4950419;28;20244;-65
2023/03/09 00:16:11;;;;;;;13.07;6.20;;;4.40;55.90;;;;;;4953592;29;20613;-65
2023/03/09 00:18:39;;;;;;;13.93;6.07;;;4.40;56.10;;;;;;4949191;28;20256;-65
2023/03/09 00:21:06;;;;;;;11.17;4.97;;;4.40;56.10;;;;;;4933685;29;20220;-64
2023/03/09 00:23:36;;;;;;;13.63;5.47;;;4.40;56.10;;;;;;4953025;29;20201;-64
2023/03/09 00:26:06;;;;;;;15.50;6.37;;;4.40;56.20;;;;;;4952645;29;20257;-65
2023/03/09 00:28:34;;;;;;;15.10;6.63;;;4.30;56.20;;;;;;4951800;28;20248;-65
2023/03/09 00:31:02;;;;;;;13.07;6.10;;;4.30;56.30;;;;;;4953406;29;20676;-65
2023/03/09 00:33:29;;;;;;;16.77;6.73;;;4.30;56.30;;;;;;4952776;29;20205;-65
2023/03/09 00:35:56;;;;;;;15.20;6.73;;;4.30;56.50;;;;;;4948781;28;20201;-64
2023/03/09 00:38:24;;;;;;;21.93;8.50;;;4.20;56.50;;;;;;4951819;29;20668;-64
2023/03/09 00:40:51;;;;;;;30.37;11.00;;;4.20;56.60;;;;;;4953039;29;20201;-65
2023/03/09 00:43:20;;;;;;;32.57;11.70;;;4.20;56.70;;;;;;4949805;28;20205;-64
2023/03/09 00:45:47;;;;;;;39.23;14.37;;;4.20;56.80;;;;;;4952995;29;20549;-64
2023/03/09 00:48:14;;;;;;;49.63;17.00;;;4.20;56.80;;;;;;4952573;29;20201;-65
2023/03/09 00:50:41;;;;;;;52.80;18.13;;;4.10;56.80;;;;;;4951904;28;20205;-65
2023/03/09 00:53:08;;;;;;;45.23;15.97;;;4.10;56.90;;;;;;4953096;29;20763;-65
2023/03/09 00:55:36;;;;;;;61.27;21.33;;;4.10;56.90;;;;;;4952657;28;20235;-65
2023/03/09 00:58:03;;;;;;;67.67;22.07;;;4.10;57.00;;;;;;4948047;28;20223;-65
2023/03/09 01:00:33;;;;;;;70.90;21.97;;;4.10;57.10;;;;;;4952854;28;20572;-64
2023/03/09 01:03:02;;;;;;;61.07;19.77;;;4.10;57.10;;;;;;4932568;29;20324;-64
2023/03/09 01:05:30;;;;;;;71.13;23.13;;;4.00;57.00;;;;;;4951014;28;20561;-65
2023/03/09 01:07:57;;;;;;;68.73;21.97;;;4.00;57.10;;;;;;4935234;29;20298;-65
2023/03/09 01:10:25;;;;;;;59.90;20.80;;;4.00;57.20;;;;;;4951918;28;20601;-65
2023/03/09 01:12:54;;;;;;;78.57;25.33;;;4.00;57.80;;;;;;4946812;28;20996;-64
2023/03/09 01:15:22;;;;;;;76.53;25.77;;;3.90;57.20;;;;;;4952518;29;20664;-65
2023/03/09 01:17:50;;;;;;;80.43;25.47;;;3.90;57.40;;;;;;4944836;29;20220;-64
2023/03/09 01:20:18;;;;;;;71.83;23.63;;;3.90;57.40;;;;;;4948761;28;20212;-65
2023/03/09 01:22:45;;;;;;;70.90;22.97;;;3.90;57.50;;;;;;4948690;28;20197;-65
2023/03/09 01:25:12;;;;;;;65.43;22.40;;;3.80;57.50;;;;;;4933862;29;20307;-64
2023/03/09 01:27:39;;;;;;;66.70;22.77;;;3.90;57.70;;;;;;4946846;28;20197;-65
2023/03/09 01:30:07;;;;;;;62.57;21.93;;;3.90;57.70;;;;;;4951000;28;20200;-65
2023/03/09 01:32:34;;;;;;;64.70;23.23;;;3.90;57.70;;;;;;4951476;29;20672;-65
2023/03/09 01:35:06;;;;;;;62.47;19.80;;;3.90;57.70;;;;;;4934733;28;20573;-66
2023/03/09 01:37:33;;;;;;;53.73;20.60;;;3.90;57.80;;;;;;4949592;28;20227;-73
2023/03/09 01:40:00;;;;;;;53.40;19.70;;;3.90;57.90;;;;;;4952258;29;20236;-72
2023/03/09 01:42:27;;;;;;;51.93;17.00;;;3.90;58.00;;;;;;4934978;28;20970;-72
2023/03/09 01:45:46;;;;;;;52.83;18.83;;;3.90;58.00;;;;;;4951268;28;20201;-72
2023/03/09 01:48:14;;;;;;;47.23;16.20;;;3.90;57.90;;;;;;4955170;28;20669;-73
2023/03/09 01:50:43;;;;;;;47.37;16.67;;;3.90;57.90;;;;;;4950570;28;20232;-73
2023/03/09 01:53:15;;;;;;;36.73;13.33;;;3.90;58.00;;;;;;4951563;28;20197;-74
2023/03/09 01:55:47;;;;;;;32.17;13.13;;;3.90;58.10;;;;;;4932297;29;20214;-73
2023/03/09 01:58:19;;;;;;;37.07;14.03;;;3.90;58.20;;;;;;4945279;28;20237;-72
2023/03/09 02:00:49;;;;;;;40.83;14.10;;;3.90;58.20;;;;;;4949818;28;20205;-73
2023/03/09 02:03:21;;;;;;;34.93;12.73;;;3.90;58.20;;;;;;4951691;29;20228;-73
2023/03/09 02:05:55;;;;;;;29.60;11.57;;;3.80;58.10;;;;;;4949599;28;20212;-73
2023/03/09 02:08:24;;;;;;;31.27;11.77;;;3.80;58.10;;;;;;4951929;28;20276;-73
2023/03/09 02:10:56;;;;;;;33.37;13.13;;;3.80;58.20;;;;;;4935989;29;20209;-72
2023/03/09 02:13:29;;;;;;;35.80;12.97;;;3.80;58.30;;;;;;4949203;28;20243;-72
2023/03/09 02:15:57;;;;;;;27.57;11.23;;;3.80;58.30;;;;;;4955774;28;20697;-73
2023/03/09 02:18:24;;;;;;;31.13;11.87;;;3.80;58.60;;;;;;4952663;28;20233;-73
2023/03/09 02:21:04;;;;;;;32.40;11.67;;;3.80;58.40;;;;;;4939541;29;20204;-72
2023/03/09 02:23:38;;;;;;;27.13;10.87;;;3.70;58.40;;;;;;4949787;28;20197;-72
2023/03/09 02:26:11;;;;;;;29.87;10.97;;;3.70;58.50;;;;;;4951709;29;20241;-73
2023/03/09 02:28:40;;;;;;;30.83;11.37;;;3.70;58.70;;;;;;4941107;29;20344;-72
2023/03/09 02:31:08;;;;;;;26.80;10.83;;;3.70;58.70;;;;;;4936483;28;20205;-73
2023/03/09 02:33:36;;;;;;;25.13;9.70;;;3.60;58.60;;;;;;4956057;28;20200;-73
2023/03/09 02:36:03;;;;;;;24.57;10.17;;;3.70;58.70;;;;;;4937984;29;20581;-73
2023/03/09 02:38:35;;;;;;;24.67;9.93;;;3.60;59.30;;;;;;4953800;28;20295;-73
2023/03/09 02:41:07;;;;;;;22.97;9.47;;;3.60;58.80;;;;;;4938508;29;20213;-73
2023/03/09 02:43:37;;;;;;;21.27;8.93;;;3.60;58.90;;;;;;4947931;29;20393;-73
2023/03/09 02:46:07;;;;;;;22.50;8.83;;;3.60;58.90;;;;;;4952019;28;20213;-72
2023/03/09 02:48:37;;;;;;;27.83;9.60;;;3.60;58.90;;;;;;4938288;29;20559;-73
2023/03/09 02:51:06;;;;;;;22.87;9.03;;;3.60;58.90;;;;;;4953852;28;20220;-73
2023/03/09 02:53:33;;;;;;;24.67;9.63;;;3.70;59.20;;;;;;4955170;28;20283;-73
2023/03/09 02:56:01;;;;;;;20.63;8.60;;;3.70;59.20;;;;;;4936518;29;20295;-73
2023/03/09 02:58:29;;;;;;;20.43;8.57;;;3.70;59.20;;;;;;4936594;29;20319;-73
2023/03/09 03:00:56;;;;;;;21.30;8.07;;;3.70;59.10;;;;;;4928783;28;20249;-74
2023/03/09 03:03:25;;;;;;;16.03;7.57;;;3.80;59.20;;;;;;4951307;28;20292;-73
2023/03/09 03:05:53;;;;;;;18.67;7.67;;;3.70;59.00;;;;;;4936582;29;20220;-72
2023/03/09 03:08:20;;;;;;;16.00;7.30;;;3.70;59.00;;;;;;4936019;28;20683;-73
2023/03/09 03:10:48;;;;;;;21.47;8.10;;;3.70;59.10;;;;;;4948531;28;20216;-73
2023/03/09 03:13:16;;;;;;;17.20;7.47;;;3.70;59.20;;;;;;4935986;29;20220;-73
2023/03/09 03:15:43;;;;;;;14.57;6.60;;;3.70;59.20;;;;;;4941918;28;20291;-73
2023/03/09 03:18:11;;;;;;;18.07;6.97;;;3.70;59.10;;;;;;4949431;28;20264;-72
2023/03/09 03:20:40;;;;;;;20.13;7.33;;;3.60;59.10;;;;;;4936765;29;20205;-73
2023/03/09 03:23:07;;;;;;;13.00;5.90;;;3.60;59.10;;;;;;4936978;29;20661;-74
2023/03/09 03:25:43;;;;;;;14.80;5.97;;;3.60;59.20;;;;;;4930738;28;20197;-73
2023/03/09 03:28:10;;;;;;;13.43;5.73;;;3.60;59.20;;;;;;4949916;28;20201;-73
2023/03/09 03:30:37;;;;;;;14.77;5.37;;;3.60;59.20;;;;;;4951486;28;20197;-72
2023/03/09 03:33:05;;;;;;;12.20;5.33;;;3.50;59.20;;;;;;4952839;28;20209;-72
2023/03/09 03:35:35;;;;;;;13.43;5.43;;;3.60;59.30;;;;;;4931856;28;20795;-72
2023/03/09 03:38:03;;;;;;;10.77;4.80;;;3.60;59.30;;;;;;4953768;28;20296;-73
2023/03/09 03:40:32;;;;;;;10.17;4.10;;;3.60;59.30;;;;;;4937647;29;20205;-72
2023/03/09 03:43:03;;;;;;;7.93;4.10;;;3.60;59.20;;;;;;4931393;28;20488;-73
2023/03/09 03:45:31;;;;;;;8.07;4.20;;;3.60;59.10;;;;;;4928743;29;20669;-73
2023/03/09 03:47:59;;;;;;;7.90;4.00;;;3.60;59.10;;;;;;4935725;29;20665;-73
2023/03/09 03:50:26;;;;;;;9.00;4.50;;;3.60;59.20;;;;;;4937359;29;20212;-73
2023/03/09 03:52:59;;;;;;;5.13;3.10;;;3.60;59.20;;;;;;4924346;28;20581;-72
2023/03/09 03:55:27;;;;;;;9.40;3.63;;;3.60;59.20;;;;;;4952614;28;20574;-72
2023/03/09 03:57:55;;;;;;;5.87;3.53;;;3.60;59.20;;;;;;4934166;29;20211;-72
2023/03/09 04:00:24;;;;;;;6.17;3.43;;;3.60;59.30;;;;;;4954045;29;20211;-72
2023/03/09 04:02:54;;;;;;;5.57;3.20;;;3.60;59.40;;;;;;4926144;29;20239;-73
2023/03/09 04:05:28;;;;;;;8.97;3.50;;;3.60;59.40;;;;;;4935364;29;20220;-72
2023/03/09 04:07:55;;;;;;;9.80;3.90;;;3.60;59.30;;;;;;4935810;29;20221;-73
2023/03/09 04:10:23;;;;;;;8.17;4.10;;;3.60;59.30;;;;;;4930674;29;20227;-72
2023/03/09 04:12:52;;;;;;;6.27;3.50;;;3.60;59.30;;;;;;4937130;29;20576;-73
2023/03/09 04:15:20;;;;;;;6.87;3.53;;;3.60;59.30;;;;;;4939236;29;20201;-72
2023/03/09 04:17:48;;;;;;;6.20;3.80;;;3.60;59.40;;;;;;4929064;28;20220;-73
2023/03/09 04:20:17;;;;;;;7.07;3.00;;;3.60;60.00;;;;;;4935236;29;20296;-72
2023/03/09 04:22:49;;;;;;;6.63;3.23;;;3.60;59.40;;;;;;4940829;29;20727;-73
2023/03/09 04:25:18;;;;;;;6.23;3.70;;;3.70;59.50;;;;;;4949048;28;20296;-73
2023/03/09 04:27:45;;;;;;;4.73;3.40;;;3.60;59.50;;;;;;4950504;28;20198;-72
2023/03/09 04:30:21;;;;;;;7.07;3.63;;;3.60;59.50;;;;;;4933847;29;20202;-73
2023/03/09 04:32:51;;;;;;;5.63;3.20;;;3.60;59.50;;;;;;4934006;28;20205;-73
2023/03/09 04:35:19;;;;;;;4.77;2.80;;;3.60;59.50;;;;;;4936049;29;20201;-73
2023/03/09 04:37:48;;;;;;;4.23;2.87;;;3.60;59.50;;;;;;4934341;29;20672;-73
2023/03/09 04:40:18;;;;;;;6.60;3.57;;;3.50;59.50;;;;;;4936683;28;20538;-73
2023/03/09 04:42:46;;;;;;;6.60;3.13;;;3.50;59.70;;;;;;4941530;28;20210;-73
2023/03/09 04:45:14;;;;;;;5.93;3.27;;;3.50;59.70;;;;;;4935656;29;20232;-73
2023/03/09 04:47:44;;;;;;;7.00;3.73;;;3.50;59.70;;;;;;4934485;29;20205;-73
2023/03/09 04:50:12;;;;;;;5.33;3.57;;;3.50;59.80;;;;;;4929239;28;20734;-72
2023/03/09 04:52:47;;;;;;;5.43;3.27;;;3.50;59.90;;;;;;4955115;28;20209;-73
2023/03/09 04:55:14;;;;;;;5.23;3.20;;;3.50;59.90;;;;;;4956898;28;20201;-72
2023/03/09 04:57:41;;;;;;;5.57;3.30;;;3.40;59.80;;;;;;4930481;28;20211;-72
2023/03/09 05:00:11;;;;;;;5.20;3.07;;;3.40;59.90;;;;;;4951191;28;20209;-73
2023/03/09 05:02:39;;;;;;;5.20;3.23;;;3.40;60.00;;;;;;4934705;29;20641;-73
2023/03/09 05:05:09;;;;;;;5.83;3.30;;;3.40;60.00;;;;;;4932489;28;20686;-73
2023/03/09 05:07:37;;;;;;;8.10;4.00;;;3.40;60.00;;;;;;4950311;28;20204;-73
2023/03/09 05:10:08;;;;;;;6.90;3.90;;;3.40;60.10;;;;;;4935157;29;20281;-71
2023/03/09 05:12:38;;;;;;;6.77;3.53;;;3.40;60.20;;;;;;4930459;28;20243;-72
2023/03/09 05:15:10;;;;;;;6.97;3.67;;;3.40;60.20;;;;;;4931875;29;20661;-72
2023/03/09 05:17:37;;;;;;;5.87;3.30;;;3.40;60.20;;;;;;4929672;29;20205;-73
2023/03/09 05:20:10;;;;;;;7.33;3.20;;;3.40;60.40;;;;;;4949147;29;20206;-73
2023/03/09 05:22:39;;;;;;;6.53;3.40;;;3.40;60.20;;;;;;4929155;29;20272;-72
2023/03/09 05:25:09;;;;;;;5.53;3.17;;;3.40;60.30;;;;;;4934958;29;20209;-73
2023/03/09 05:27:37;;;;;;;5.07;2.90;;;3.40;60.40;;;;;;4932676;29;20213;-72
2023/03/09 05:30:07;;;;;;;5.87;3.27;;;3.40;60.40;;;;;;4933668;29;20724;-72
2023/03/09 05:32:38;;;;;;;6.57;3.47;;;3.40;60.30;;;;;;4934141;29;20209;-72
2023/03/09 05:35:08;;;;;;;7.20;3.40;;;3.40;60.40;;;;;;4934638;28;20300;-73
2023/03/09 05:37:36;;;;;;;8.33;3.43;;;3.40;60.40;;;;;;4948041;28;20197;-72
2023/03/09 05:40:11;;;;;;;6.03;3.10;;;3.40;60.40;;;;;;4939353;29;20215;-73
2023/03/09 05:42:41;;;;;;;6.27;3.80;;;3.40;60.30;;;;;;4932580;29;20236;-73
2023/03/09 05:45:09;;;;;;;6.70;3.60;;;3.40;60.30;;;;;;4932115;28;20205;-73
2023/03/09 05:47:38;;;;;;;5.97;3.40;;;3.40;60.30;;;;;;4933352;29;20211;-72
2023/03/09 05:50:09;;;;;;;6.40;3.33;;;3.50;60.40;;;;;;4934777;29;20213;-73
2023/03/09 05:52:36;;;;;;;5.17;2.80;;;3.50;60.40;;;;;;4930523;28;20205;-73
2023/03/09 05:55:04;;;;;;;7.77;3.67;;;3.50;60.40;;;;;;4931387;29;20228;-73
2023/03/09 05:57:33;;;;;;;6.53;3.73;;;3.50;60.30;;;;;;4932207;29;20295;-72
2023/03/09 06:00:03;;;;;;;5.27;3.30;;;3.50;60.40;;;;;;4933491;29;20217;-72
2023/03/09 06:02:40;;;;;;;4.17;3.10;;;3.50;60.40;;;;;;4948492;28;20232;-71
2023/03/09 06:05:14;;;;;;;5.07;2.77;;;3.50;60.40;;;;;;4930114;29;20231;-72
2023/03/09 06:07:42;;;;;;;6.03;3.10;;;3.50;60.50;;;;;;4932211;28;20314;-72
2023/03/09 06:10:11;;;;;;;6.43;3.30;;;3.60;60.70;;;;;;4955071;28;20205;-72
2023/03/09 06:12:39;;;;;;;4.70;2.70;;;3.60;60.80;;;;;;4933658;29;20301;-72
2023/03/09 06:15:09;;;;;;;5.00;2.90;;;3.60;60.90;;;;;;4933944;28;20304;-73
2023/03/09 06:17:38;;;;;;;4.97;2.50;;;3.60;61.30;;;;;;4944876;29;20296;-72
2023/03/09 06:20:09;;;;;;;3.20;2.33;;;3.70;60.90;;;;;;4931148;29;20217;-72
2023/03/09 06:22:44;;;;;;;3.93;2.87;;;3.80;60.90;;;;;;4930606;28;20303;-72
2023/03/09 06:25:12;;;;;;;5.40;2.97;;;3.80;60.90;;;;;;4935280;29;20213;-72
2023/03/09 06:27:41;;;;;;;4.53;2.23;;;3.90;60.80;;;;;;4932289;29;20205;-72
2023/03/09 06:30:10;;;;;;;4.20;2.10;;;4.00;60.80;;;;;;4930245;29;20193;-72
2023/03/09 06:32:38;;;;;;;3.30;2.30;;;4.00;60.70;;;;;;4940843;29;20225;-73
2023/03/09 06:35:06;;;;;;;4.60;2.53;;;4.00;60.70;;;;;;4934027;29;20657;-72
2023/03/09 06:37:34;;;;;;;3.80;2.30;;;4.10;60.70;;;;;;4930686;28;20203;-71
2023/03/09 06:40:04;;;;;;;3.37;2.40;;;4.20;60.80;;;;;;4934335;29;20316;-71
2023/03/09 06:42:32;;;;;;;5.10;2.70;;;4.20;60.80;;;;;;4947222;28;20244;-71
2023/03/09 06:44:59;;;;;;;3.93;2.47;;;4.30;60.90;;;;;;4930318;29;20193;-72
2023/03/09 06:47:30;;;;;;;4.17;2.50;;;4.30;60.80;;;;;;4933538;29;20236;-72
2023/03/09 06:50:04;;;;;;;5.27;2.80;;;4.40;60.90;;;;;;4935189;29;20473;-71
2023/03/09 06:52:33;;;;;;;6.77;3.13;;;4.40;60.90;;;;;;4931930;29;20201;-73
2023/03/09 06:55:00;;;;;;;6.40;4.07;;;4.50;60.90;;;;;;4939766;29;20216;-72
2023/03/09 06:57:30;;;;;;;10.37;5.77;;;4.50;60.80;;;;;;4931845;29;20260;-72
2023/03/09 06:59:58;;;;;;;11.07;5.90;;;4.60;60.90;;;;;;4934280;28;20249;-73
2023/03/09 07:02:25;;;;;;;13.03;6.67;;;4.60;60.90;;;;;;4959796;28;20811;-73
2023/03/09 07:04:54;;;;;;;13.20;6.87;;;4.70;60.80;;;;;;4944328;29;20300;-71
2023/03/09 07:07:21;;;;;;;13.00;6.23;;;4.70;60.60;;;;;;4928921;28;20208;-73
2023/03/09 07:09:48;;;;;;;11.40;6.63;;;4.70;60.50;;;;;;4950840;28;20192;-72
2023/03/09 07:12:15;;;;;;;22.37;8.63;;;4.80;60.70;;;;;;4949126;28;20205;-72
2023/03/09 07:14:44;;;;;;;11.00;6.67;;;4.80;60.60;;;;;;4951386;28;20201;-71
2023/03/09 07:17:13;;;;;;;11.53;6.10;;;4.80;60.50;;;;;;4952449;29;20575;-71
2023/03/09 07:19:44;;;;;;;15.10;6.87;;;4.90;60.40;;;;;;4952065;28;20217;-71
2023/03/09 07:22:12;;;;;;;14.63;6.80;;;4.90;60.30;;;;;;4930909;28;20699;-72
2023/03/09 07:24:39;;;;;;;15.07;6.63;;;5.00;60.00;;;;;;4951056;28;20318;-72
2023/03/09 07:27:08;;;;;;;13.60;6.57;;;5.00;60.00;;;;;;4951859;29;20213;-72
2023/03/09 07:29:35;;;;;;;19.73;8.23;;;5.00;59.80;;;;;;4950781;28;20208;-71
2023/03/09 07:32:05;;;;;;;19.00;8.10;;;5.10;59.30;;;;;;4948659;28;20197;-71
2023/03/09 07:34:35;;;;;;;19.27;7.60;;;5.20;59.00;;;;;;4950985;28;20335;-72
2023/03/09 07:37:03;;;;;;;14.27;6.23;;;5.20;58.80;;;;;;4952740;29;20204;-72
2023/03/09 07:39:30;;;;;;;13.37;5.90;;;5.30;58.50;;;;;;4949203;28;20268;-72
2023/03/09 07:41:57;;;;;;;7.07;3.80;;;5.30;58.20;;;;;;4929115;29;20208;-72
2023/03/09 07:44:24;;;;;;;4.67;3.20;;;5.30;56.80;;;;;;4949905;29;20197;-71
2023/03/09 07:46:51;;;;;;;6.53;2.70;;;5.40;56.50;;;;;;4950525;28;20209;-72
2023/03/09 07:49:20;;;;;;;7.53;3.07;;;5.40;56.40;;;;;;4950608;28;20190;-72
2023/03/09 07:51:47;;;;;;;6.50;3.20;;;5.50;56.10;;;;;;4943191;29;20200;-72
2023/03/09 07:54:15;;;;;;;4.27;2.73;;;5.50;55.60;;;;;;4949213;29;20405;-71
2023/03/09 07:56:47;;;;;;;4.90;2.33;;;5.50;55.00;;;;;;4948398;28;20308;-72
2023/03/09 07:59:15;;;;;;;7.30;3.73;;;5.60;55.20;;;;;;4950598;28;20653;-72
2023/03/09 08:01:42;;;;;;;7.47;3.57;;;5.70;54.90;;;;;;4927994;29;20288;-73
2023/03/09 08:04:10;;;;;;;14.00;4.40;;;5.70;54.60;;;;;;4949756;28;20259;-72
2023/03/09 08:06:39;;;;;;;7.83;3.63;;;5.70;54.60;;;;;;4948551;28;20193;-72
2023/03/09 08:09:07;;;;;;;5.70;3.43;;;5.70;54.90;;;;;;4948457;28;20197;-74
2023/03/09 08:11:34;;;;;;;6.83;3.83;;;5.70;54.50;;;;;;4949606;28;20197;-72
2023/03/09 08:14:01;;;;;;;6.47;3.93;;;5.70;54.60;;;;;;4951218;29;20692;-71
2023/03/09 08:16:29;;;;;;;7.93;3.53;;;5.80;54.80;;;;;;4950483;28;20309;-71
2023/03/09 08:18:56;;;;;;;4.70;2.70;;;5.80;54.90;;;;;;4947714;28;20691;-72
2023/03/09 08:21:32;;;;;;;5.90;3.20;;;6.00;55.10;;;;;;4947424;28;20355;-72
2023/03/09 08:24:07;;;;;;;7.73;3.70;;;6.10;55.20;;;;;;4949268;28;20305;-72
2023/03/09 08:26:34;;;;;;;7.33;3.70;;;6.20;55.10;;;;;;4948287;29;20648;-72
2023/03/09 08:29:01;;;;;;;9.10;4.17;;;6.30;54.90;;;;;;4950706;29;20193;-72
2023/03/09 08:31:28;;;;;;;7.97;3.67;;;6.30;54.70;;;;;;4948719;28;20192;-71
2023/03/09 08:33:55;;;;;;;10.97;4.40;;;6.40;54.70;;;;;;4948535;28;20211;-72
2023/03/09 08:36:23;;;;;;;8.57;4.30;;;6.40;54.60;;;;;;4951030;28;20697;-72
2023/03/09 08:38:50;;;;;;;9.10;4.40;;;6.40;54.40;;;;;;4951424;29;20653;-72
2023/03/09 08:41:20;;;;;;;7.97;4.47;;;6.50;54.40;;;;;;4948996;28;20307;-71
2023/03/09 08:43:47;;;;;;;12.00;5.93;;;6.50;54.20;;;;;;4949834;28;20205;-73
2023/03/09 08:46:14;;;;;;;13.87;5.30;;;6.60;53.90;;;;;;4951273;29;20210;-72
2023/03/09 08:48:42;;;;;;;11.53;5.87;;;6.60;53.70;;;;;;4948530;28;20550;-72
2023/03/09 08:51:10;;;;;;;8.90;4.73;;;6.60;53.20;;;;;;4948949;28;20583;-71
2023/03/09 08:53:39;;;;;;;8.37;4.07;;;6.60;53.30;;;;;;4951058;29;20201;-72
2023/03/09 08:56:08;;;;;;;10.77;4.67;;;6.60;53.40;;;;;;4931964;28;20232;-72
2023/03/09 08:58:37;;;;;;;9.83;4.37;;;6.70;53.20;;;;;;4946488;28;20712;-72
2023/03/09 09:01:06;;;;;;;12.10;5.47;;;6.70;52.60;;;;;;4948208;29;20674;-71
2023/03/09 09:03:33;;;;;;;11.13;5.63;;;6.80;51.90;;;;;;4945904;28;20319;-71
2023/03/09 09:06:04;;;;;;;8.40;4.73;;;7.10;51.90;;;;;;4941928;28;20590;-71
2023/03/09 09:08:31;;;;;;;6.47;3.77;;;7.40;50.90;;;;;;4947082;28;20764;-71
2023/03/09 09:10:59;;;;;;;8.03;4.20;;;7.60;50.80;;;;;;4946909;28;20834;-72
2023/03/09 09:13:26;;;;;;;8.50;3.77;;;7.70;50.60;;;;;;4925741;28;20206;-74
2023/03/09 09:15:56;;;;;;;5.37;3.17;;;7.70;49.20;;;;;;4928916;28;20204;-72
2023/03/09 09:18:23;;;;;;;7.13;3.00;;;7.60;48.50;;;;;;4946367;28;20208;-71
2023/03/09 09:20:50;;;;;;;8.37;3.07;;;7.50;48.80;;;;;;4947831;28;20205;-70
2023/03/09 09:23:17;;;;;;;6.80;3.77;;;7.50;49.30;;;;;;4927334;28;20841;-72
2023/03/09 09:25:44;;;;;;;5.23;3.23;;;7.70;51.10;;;;;;4950530;29;20621;-72
2023/03/09 09:28:12;;;;;;;4.40;2.80;;;7.80;50.40;;;;;;4947783;28;20193;-72
2023/03/09 09:30:41;;;;;;;3.37;2.73;;;7.80;49.40;;;;;;4947222;28;20193;-71
2023/03/09 09:33:11;;;;;;;2.70;2.10;;;8.10;49.30;;;;;;4945955;28;20560;-71
2023/03/09 09:35:38;;;;;;;4.30;2.60;;;8.30;47.40;;;;;;4948889;28;20194;-71
2023/03/09 09:38:05;;;;;;;3.57;2.13;;;8.20;47.10;;;;;;4943395;28;20491;-72
2023/03/09 09:40:32;;;;;;;3.13;1.97;;;8.20;47.50;;;;;;4929551;28;20234;-71
2023/03/09 09:43:00;;;;;;;4.87;2.30;;;8.20;47.60;;;;;;4928394;28;20255;-71
2023/03/09 09:45:31;;;;;;;5.03;2.63;;;8.20;47.20;;;;;;4948468;28;20231;-72
2023/03/09 09:48:01;;;;;;;3.10;2.13;;;8.10;47.20;;;;;;4927859;28;20259;-71
2023/03/09 09:50:47;;;;;;;2.57;1.80;;;8.10;47.20;;;;;;4950893;29;20254;-72
2023/03/09 09:53:25;;;;;;;2.20;1.67;;;8.10;46.70;;;;;;4947192;29;20661;-71
2023/03/09 09:55:53;;;;;;;1.93;1.73;;;8.00;45.90;;;;;;4948347;28;20236;-71
2023/03/09 09:58:31;;;;;;;1.40;1.30;;;8.10;46.30;;;;;;4944738;28;20191;-71
2023/03/09 10:01:02;;;;;;;2.73;1.33;;;8.20;46.60;;;;;;4945988;28;20204;-71
2023/03/09 10:03:34;;;;;;;3.33;1.60;;;8.40;46.30;;;;;;4944126;28;20259;-71
2023/03/09 10:06:10;;;;;;;1.57;1.47;;;8.90;46.30;;;;;;4945166;28;20193;-71
2023/03/09 10:08:42;;;;;;;3.60;2.20;;;9.80;46.30;;;;;;4944895;28;20246;-71
2023/03/09 10:11:17;;;;;;;6.30;2.00;;;10.80;44.00;;;;;;4945389;28;20205;-72
2023/03/09 10:13:48;;;;;;;2.37;2.03;;;11.50;42.00;;;;;;4947456;28;20269;-71
2023/03/09 10:16:19;;;;;;;1.60;1.50;;;11.90;41.50;;;;;;4949106;29;20200;-73
2023/03/09 10:18:49;;;;;;;1.20;1.10;;;12.10;41.10;;;;;;4946828;28;20198;-73
2023/03/09 10:21:23;;;;;;;1.43;0.70;;;12.20;40.30;;;;;;4941945;28;20223;-72
2023/03/09 10:40:50;;;;;;;4.17;1.53;;;11.40;38.90;;;;;;4901385;29;20205;-92
2023/03/09 10:43:59;;;;;;;4.70;1.73;;;11.10;39.00;;;;;;4811604;29;20217;-90
2023/03/09 11:48:46;;;;;;;1.63;0.70;;;12.70;32.50;;;;;;4891432;28;20285;-60
2023/03/09 11:51:19;;;;;;;2.73;1.20;;;12.40;32.80;;;;;;4913218;29;20266;-62
2023/03/09 11:53:56;;;;;;;3.27;1.30;;;12.20;32.70;;;;;;4913792;29;20217;-61
2023/03/09 11:56:28;;;;;;;0.80;0.80;;;12.00;32.70;;;;;;4922082;29;20608;-61
2023/03/09 11:59:01;;;;;;;2.83;0.87;;;11.90;33.40;;;;;;4915981;29;20304;-61
2023/03/09 12:01:33;;;;;;;0.70;0.70;;;11.80;32.40;;;;;;4908568;29;20287;-62
2023/03/09 12:04:04;;;;;;;1.03;0.90;;;11.60;32.20;;;;;;4910498;29;20217;-62
2023/03/09 12:06:42;;;;;;;1.73;1.30;;;11.50;31.90;;;;;;4917423;29;20810;-61
2023/03/09 12:09:17;;;;;;;1.47;1.30;;;11.60;32.10;;;;;;4912251;29;20294;-62
2023/03/09 12:11:50;;;;;;;3.47;1.00;;;11.70;32.20;;;;;;4921184;29;20622;-61
2023/03/09 12:14:23;;;;;;;0.90;0.70;;;11.70;32.00;;;;;;4921396;29;20741;-61
2023/03/09 12:16:54;;;;;;;1.67;0.80;;;11.70;32.20;;;;;;4923188;29;20200;-61
2023/03/09 12:19:27;;;;;;;0.90;0.90;;;11.50;32.60;;;;;;4915015;29;20213;-61
2023/03/09 12:22:02;;;;;;;2.67;1.07;;;11.30;32.60;;;;;;4915822;29;20201;-61
2023/03/09 12:24:38;;;;;;;0.70;0.70;;;11.10;33.20;;;;;;4920810;29;20229;-61
2023/03/09 12:27:17;;;;;;;0.70;0.70;;;10.90;32.50;;;;;;4922492;29;20197;-61
2023/03/09 12:29:47;;;;;;;1.87;1.07;;;10.80;32.40;;;;;;4923683;29;20271;-61
2023/03/09 12:32:37;;;;;;;2.23;0.50;;;10.60;32.60;;;;;;4923200;29;20225;-61
2023/03/09 12:35:12;;;;;;;0.53;0.50;;;10.50;33.10;;;;;;4908167;29;20783;-62
2023/03/09 12:37:56;;;;;;;2.20;0.70;;;10.40;33.30;;;;;;4916306;29;20383;-61
2023/03/09 12:40:32;;;;;;;0.70;0.70;;;10.30;33.60;;;;;;4921169;29;20222;-61
2023/03/09 12:43:34;;;;;;;0.50;0.50;;;10.30;34.00;;;;;;4914534;29;20198;-61
2023/03/09 12:46:36;;;;;;;0.40;0.40;;;10.10;34.10;;;;;;4919650;29;20310;-61
2023/03/09 12:49:03;;;;;;;0.63;0.63;;;10.00;34.20;;;;;;4917257;29;20601;-61
2023/03/09 12:51:37;;;;;;;0.60;0.57;;;10.00;34.70;;;;;;4911373;29;20204;-61
2023/03/09 12:54:19;;;;;;;1.90;0.77;;;9.90;36.10;;;;;;4907628;29;20201;-61
2023/03/09 12:56:46;;;;;;;0.70;0.70;;;9.80;36.60;;;;;;4895014;29;20716;-61
2023/03/09 12:59:19;;;;;;;0.67;0.67;;;9.70;36.70;;;;;;4909642;29;20227;-62
2023/03/09 13:01:46;;;;;;;1.00;0.73;;;9.90;36.80;;;;;;4909602;29;20211;-62
2023/03/09 13:04:19;;;;;;;0.53;0.53;;;10.20;36.00;;;;;;4914176;29;20304;-62
2023/03/09 13:06:54;;;;;;;4.03;0.90;;;10.50;35.80;;;;;;4906283;29;20222;-61
2023/03/09 13:09:24;;;;;;;1.13;0.93;;;10.70;35.00;;;;;;4905053;29;20201;-61
2023/03/09 13:12:01;;;;;;;1.30;0.90;;;10.80;34.80;;;;;;4907512;29;20694;-61
2023/03/09 13:15:08;;;;;;;2.10;1.10;;;10.70;35.10;;;;;;4908483;29;20237;-61
2023/03/09 13:17:38;;;;;;;2.03;0.90;;;10.50;34.90;;;;;;4904201;29;20233;-61
2023/03/09 13:20:25;;;;;;;0.87;0.87;;;10.20;34.80;;;;;;4904987;29;20222;-61
2023/03/09 13:22:54;;;;;;;2.00;0.70;;;10.00;34.90;;;;;;4905317;29;20229;-61
2023/03/09 13:25:46;;;;;;;2.70;0.77;;;9.70;36.00;;;;;;4899496;29;20208;-62
2023/03/09 13:28:25;;;;;;;0.80;0.80;;;9.50;36.50;;;;;;4896904;29;20745;-62
2023/03/09 13:30:55;;;;;;;1.53;1.30;;;9.40;36.80;;;;;;4905267;29;20208;-61
2023/03/09 13:33:26;;;;;;;1.90;1.20;;;9.30;37.30;;;;;;4912415;29;20211;-61
2023/03/09 13:35:57;;;;;;;1.10;1.00;;;9.10;37.50;;;;;;4910671;29;20201;-61
2023/03/09 13:38:29;;;;;;;1.03;0.87;;;9.00;37.50;;;;;;4907444;29;20217;-61
2023/03/09 13:40:59;;;;;;;0.70;0.70;;;9.00;37.70;;;;;;4910692;29;20194;-61
2023/03/09 13:43:31;;;;;;;0.50;0.50;;;9.00;37.90;;;;;;4912675;29;20207;-61
2023/03/09 13:46:07;;;;;;;0.43;0.43;;;9.00;38.00;;;;;;4909157;29;20256;-61
2023/03/09 13:48:42;;;;;;;0.73;0.73;;;9.00;38.30;;;;;;4907749;29;20322;-62
2023/03/09 13:51:25;;;;;;;2.23;1.17;;;9.00;38.40;;;;;;4906540;29;20202;-61
2023/03/09 13:53:54;;;;;;;1.13;0.80;;;9.00;38.70;;;;;;4911986;29;20199;-61
2023/03/09 13:56:21;;;;;;;2.07;0.80;;;8.90;38.70;;;;;;4906285;29;20188;-61
2023/03/09 13:58:49;;;;;;;1.33;0.77;;;8.90;38.80;;;;;;4907670;29;20302;-62
2023/03/09 14:01:23;;;;;;;1.63;1.20;;;8.90;38.90;;;;;;4901602;29;20287;-60
2023/03/09 14:03:52;;;;;;;1.83;0.80;;;8.80;38.90;;;;;;4909055;29;20197;-61
2023/03/09 14:06:29;;;;;;;2.07;0.90;;;8.80;39.00;;;;;;4900568;29;20211;-61
2023/03/09 14:09:20;;;;;;;1.67;0.90;;;8.80;39.10;;;;;;4911433;29;20218;-61
2023/03/09 14:11:47;;;;;;;0.90;0.70;;;8.70;39.10;;;;;;4903922;29;20207;-61
2023/03/09 14:14:19;;;;;;;0.87;0.70;;;8.70;39.20;;;;;;4908299;29;20203;-62
2023/03/09 14:16:48;;;;;;;0.77;0.77;;;8.70;39.40;;;;;;4908183;29;20730;-62
2023/03/09 14:19:22;;;;;;;0.70;0.60;;;8.60;39.50;;;;;;4905034;29;20215;-61
2023/03/09 14:21:54;;;;;;;4.13;1.00;;;8.60;39.60;;;;;;4904543;29;20202;-61
2023/03/09 14:24:25;;;;;;;1.60;1.03;;;8.60;39.80;;;;;;4906761;29;20208;-61
2023/03/09 14:26:53;;;;;;;0.90;0.80;;;8.50;39.80;;;;;;4910572;29;20238;-60